Time;durP1;ratioP1;P1;durP2;ratioP2;P2;SDS_P1;SDS_P2;PMS_P1;PMS_P2;Temp;Humidity;BMP_temperature;BMP_pressure;BME280_temperature;BME280_humidity;BME280_pressure;Samples;Min_cycle;Max_cycle;Signal;HPM_P1;HPM_P2
2023/08/01 00:00:43;;;;;;;7.13;6.53;;;22.50;99.90;;;;;;4996992;28;20026;-86
2023/08/01 00:03:09;;;;;;;6.68;6.07;;;22.50;99.90;;;;;;5014938;28;20029;-86
2023/08/01 00:05:34;;;;;;;7.93;7.22;;;22.50;99.90;;;;;;4996372;28;20425;-86
2023/08/01 00:08:02;;;;;;;7.75;7.05;;;22.50;99.90;;;;;;4996289;28;20485;-86
2023/08/01 00:10:28;;;;;;;7.13;6.45;;;22.50;99.90;;;;;;4995772;28;20117;-85
2023/08/01 00:12:53;;;;;;;7.18;6.47;;;22.50;99.90;;;;;;4995867;28;20557;-86
2023/08/01 00:15:19;;;;;;;7.30;6.60;;;22.50;99.90;;;;;;4957127;28;20057;-86
2023/08/01 00:17:45;;;;;;;7.30;6.60;;;22.40;99.90;;;;;;4996982;28;20030;-86
2023/08/01 00:20:11;;;;;;;6.78;6.18;;;22.50;99.90;;;;;;5013191;28;20026;-86
2023/08/01 00:22:36;;;;;;;7.05;6.43;;;22.40;99.90;;;;;;5013319;28;20029;-86
2023/08/01 00:25:02;;;;;;;7.43;6.72;;;22.40;99.90;;;;;;5011652;28;20022;-86
2023/08/01 00:27:28;;;;;;;8.25;7.45;;;22.40;99.90;;;;;;5011152;28;20018;-86
2023/08/01 00:29:54;;;;;;;8.07;7.30;;;22.40;99.90;;;;;;5011053;28;20033;-85
2023/08/01 00:32:20;;;;;;;7.43;6.70;;;22.40;99.90;;;;;;4993756;28;20512;-86
2023/08/01 00:34:45;;;;;;;7.50;6.80;;;22.30;99.90;;;;;;5011115;28;20030;-85
2023/08/01 00:37:11;;;;;;;7.93;7.13;;;22.30;99.90;;;;;;4993589;28;20032;-86
2023/08/01 00:39:37;;;;;;;7.65;6.80;;;22.30;99.90;;;;;;4994552;28;20041;-86
2023/08/01 00:42:03;;;;;;;7.55;6.85;;;22.30;99.90;;;;;;4995487;28;20026;-86
2023/08/01 00:44:28;;;;;;;7.60;6.90;;;22.30;99.90;;;;;;4995388;28;20094;-86
2023/08/01 00:46:54;;;;;;;7.68;6.97;;;22.30;99.90;;;;;;5013041;28;20026;-86
2023/08/01 00:49:20;;;;;;;7.75;7.05;;;22.30;99.90;;;;;;5012930;28;20045;-86
2023/08/01 00:51:46;;;;;;;7.70;7.00;;;22.30;99.90;;;;;;4994834;28;20033;-86
2023/08/01 00:54:11;;;;;;;7.18;6.47;;;22.30;99.90;;;;;;5012608;28;20026;-86
2023/08/01 00:56:37;;;;;;;8.18;7.38;;;22.30;99.90;;;;;;4995687;28;20033;-86
2023/08/01 00:59:04;;;;;;;7.28;6.57;;;22.30;99.90;;;;;;4998605;28;20026;-86
2023/08/01 01:01:30;;;;;;;7.40;6.70;;;22.30;99.90;;;;;;5016311;28;20026;-86
2023/08/01 01:03:56;;;;;;;7.00;6.30;;;22.30;99.90;;;;;;5016496;28;20536;-86
2023/08/01 01:06:36;;;;;;;8.10;7.40;;;22.30;99.90;;;;;;5016309;28;20532;-86
2023/08/01 01:09:04;;;;;;;7.85;7.15;;;22.30;99.90;;;;;;5016230;28;20056;-86
2023/08/01 01:11:30;;;;;;;8.45;7.50;;;22.30;99.90;;;;;;4998207;28;20044;-86
2023/08/01 01:13:56;;;;;;;8.18;7.38;;;22.20;99.90;;;;;;4998518;28;20152;-85
2023/08/01 01:16:21;;;;;;;7.80;7.10;;;22.20;99.90;;;;;;4998913;28;20064;-85
2023/08/01 01:18:47;;;;;;;8.48;7.55;;;22.20;99.90;;;;;;5016409;28;20030;-86
2023/08/01 01:21:13;;;;;;;8.57;7.78;;;22.20;99.90;;;;;;4998549;28;20037;-86
2023/08/01 01:23:39;;;;;;;8.77;7.88;;;22.20;99.90;;;;;;4998091;28;20032;-86
2023/08/01 01:26:07;;;;;;;8.00;7.30;;;22.20;99.90;;;;;;4998154;28;20529;-86
2023/08/01 01:28:33;;;;;;;7.68;6.97;;;22.20;99.90;;;;;;4998100;28;20115;-86
2023/08/01 01:31:01;;;;;;;7.03;6.32;;;22.20;99.90;;;;;;4998403;28;20033;-86
2023/08/01 01:33:27;;;;;;;8.25;7.38;;;22.20;99.90;;;;;;4998235;28;20022;-86
2023/08/01 01:35:53;;;;;;;8.30;7.50;;;22.20;99.90;;;;;;4998625;28;20068;-86
2023/08/01 01:38:19;;;;;;;8.05;7.25;;;22.20;99.90;;;;;;5016358;28;20505;-86
2023/08/01 01:40:45;;;;;;;7.93;7.13;;;22.20;99.90;;;;;;4998221;28;20117;-86
2023/08/01 01:43:10;;;;;;;8.27;7.50;;;22.20;99.90;;;;;;4998154;28;20022;-86
2023/08/01 01:45:36;;;;;;;7.75;7.05;;;22.20;99.90;;;;;;5015886;28;20046;-86
2023/08/01 01:48:02;;;;;;;8.23;7.50;;;22.20;99.90;;;;;;4997689;28;20050;-86
2023/08/01 01:50:27;;;;;;;8.18;7.40;;;22.20;99.90;;;;;;4998066;28;20026;-86
2023/08/01 01:52:53;;;;;;;7.72;7.03;;;22.20;99.90;;;;;;4998324;28;20299;-86
2023/08/01 01:55:19;;;;;;;8.27;7.47;;;22.20;99.90;;;;;;4998146;28;20026;-86
2023/08/01 01:57:44;;;;;;;8.02;7.22;;;22.20;99.90;;;;;;5015548;28;20029;-86
2023/08/01 02:00:10;;;;;;;8.18;7.40;;;22.20;99.90;;;;;;5015558;28;20017;-86
2023/08/01 02:02:36;;;;;;;7.85;7.15;;;22.20;99.90;;;;;;4997859;28;20105;-86
2023/08/01 02:05:03;;;;;;;8.55;7.63;;;22.20;99.90;;;;;;4998290;28;20121;-86
2023/08/01 02:07:29;;;;;;;8.68;7.75;;;22.10;99.90;;;;;;5016066;28;20018;-86
2023/08/01 02:09:55;;;;;;;8.18;7.43;;;22.10;99.90;;;;;;4997069;28;20096;-86
2023/08/01 02:12:21;;;;;;;8.85;8.05;;;22.10;99.90;;;;;;5015323;28;20037;-86
2023/08/01 02:14:46;;;;;;;7.95;7.25;;;22.10;99.90;;;;;;5015523;28;20169;-86
2023/08/01 02:17:12;;;;;;;8.23;7.43;;;22.10;99.90;;;;;;4998071;28;20029;-86
2023/08/01 02:19:38;;;;;;;8.27;7.47;;;22.10;99.90;;;;;;5015650;28;20034;-86
2023/08/01 02:22:04;;;;;;;8.23;7.53;;;22.10;99.90;;;;;;5015005;28;20041;-86
2023/08/01 02:24:30;;;;;;;8.60;7.80;;;22.10;99.90;;;;;;5015692;28;20129;-86
2023/08/01 02:26:55;;;;;;;8.70;7.90;;;22.10;99.90;;;;;;4998018;28;20026;-86
2023/08/01 02:29:21;;;;;;;9.00;8.20;;;22.10;99.90;;;;;;4997951;28;20028;-86
2023/08/01 02:31:47;;;;;;;9.00;8.18;;;22.10;99.90;;;;;;5015764;28;20057;-86
2023/08/01 02:34:12;;;;;;;10.13;9.23;;;22.10;99.90;;;;;;4971583;28;20046;-86
2023/08/01 02:36:40;;;;;;;9.40;8.45;;;22.00;99.90;;;;;;5015657;28;20430;-85
2023/08/01 02:39:06;;;;;;;8.50;7.60;;;22.00;99.90;;;;;;4998377;28;20121;-85
2023/08/01 02:41:32;;;;;;;8.27;7.47;;;22.00;99.90;;;;;;5015129;28;20022;-86
2023/08/01 02:43:57;;;;;;;8.73;7.93;;;22.00;99.90;;;;;;4997072;28;20029;-86
2023/08/01 02:46:23;;;;;;;8.57;7.72;;;22.00;99.90;;;;;;5014914;28;20033;-86
2023/08/01 02:48:49;;;;;;;8.40;7.40;;;22.10;99.90;;;;;;5014649;28;20062;-85
2023/08/01 02:51:14;;;;;;;8.40;7.60;;;22.10;99.90;;;;;;4997230;28;20029;-86
2023/08/01 02:53:43;;;;;;;8.45;7.65;;;22.10;99.90;;;;;;4997389;28;20032;-86
2023/08/01 02:56:09;;;;;;;8.23;7.43;;;22.10;99.90;;;;;;5014839;28;20022;-86
2023/08/01 02:58:36;;;;;;;8.00;7.15;;;22.10;99.90;;;;;;5014599;28;20018;-86
2023/08/01 03:01:07;;;;;;;7.10;6.47;;;22.10;99.90;;;;;;4997272;28;20022;-86
2023/08/01 03:03:32;;;;;;;6.90;6.30;;;22.10;99.90;;;;;;4997415;28;20050;-86
2023/08/01 03:05:59;;;;;;;6.32;5.72;;;22.10;99.90;;;;;;4996601;28;20030;-86
2023/08/01 03:08:25;;;;;;;7.68;6.97;;;22.20;99.90;;;;;;4997151;28;20026;-86
2023/08/01 03:10:51;;;;;;;7.32;6.63;;;22.20;99.90;;;;;;5014759;28;20161;-86
2023/08/01 03:13:16;;;;;;;7.07;6.28;;;22.20;99.90;;;;;;4994804;28;20096;-86
2023/08/01 03:15:42;;;;;;;6.50;5.90;;;22.20;99.90;;;;;;4996477;28;20398;-85
2023/08/01 03:18:08;;;;;;;7.47;6.72;;;22.20;99.90;;;;;;5014170;28;20525;-86
2023/08/01 03:20:33;;;;;;;6.13;5.53;;;22.20;99.90;;;;;;5014097;28;20443;-86
2023/08/01 03:22:59;;;;;;;5.70;5.20;;;22.30;99.90;;;;;;5015525;28;20022;-86
2023/08/01 03:25:25;;;;;;;6.00;5.40;;;22.30;99.90;;;;;;4997012;28;20026;-86
2023/08/01 03:27:50;;;;;;;5.50;5.00;;;22.30;99.90;;;;;;5014266;28;20038;-86
2023/08/01 03:30:16;;;;;;;5.95;5.35;;;22.20;99.90;;;;;;5013779;28;20025;-86
2023/08/01 03:32:42;;;;;;;6.55;4.90;;;22.20;99.90;;;;;;4997121;28;20036;-85
2023/08/01 03:35:08;;;;;;;5.70;5.10;;;22.30;99.90;;;;;;5019059;28;20021;-85
2023/08/01 03:37:33;;;;;;;5.30;4.80;;;22.20;99.90;;;;;;5014611;28;20401;-85
2023/08/01 03:39:59;;;;;;;4.97;4.57;;;22.20;99.90;;;;;;4995329;28;20029;-85
2023/08/01 03:42:25;;;;;;;5.35;4.80;;;22.20;99.90;;;;;;4995776;28;20512;-85
2023/08/01 03:44:51;;;;;;;5.18;4.53;;;22.20;99.90;;;;;;5013363;28;20135;-85
2023/08/01 03:47:16;;;;;;;6.03;5.43;;;22.20;99.90;;;;;;4995406;28;20022;-85
2023/08/01 03:49:42;;;;;;;6.40;5.80;;;22.20;99.90;;;;;;4994879;28;20153;-85
2023/08/01 03:52:08;;;;;;;6.43;5.82;;;22.20;99.90;;;;;;5014032;28;20205;-85
2023/08/01 03:54:33;;;;;;;6.97;6.28;;;22.20;99.90;;;;;;4994441;28;20033;-85
2023/08/01 03:56:59;;;;;;;6.40;5.80;;;22.20;99.90;;;;;;4995458;28;20025;-85
2023/08/01 03:59:26;;;;;;;5.38;4.88;;;22.10;99.90;;;;;;5013272;28;20076;-85
2023/08/01 04:01:52;;;;;;;6.20;5.13;;;22.10;99.90;;;;;;5012952;28;20028;-85
2023/08/01 04:04:17;;;;;;;5.25;4.68;;;22.00;99.90;;;;;;4995620;28;20026;-85
2023/08/01 04:06:43;;;;;;;5.10;4.47;;;22.00;99.90;;;;;;5012295;28;20030;-85
2023/08/01 04:09:08;;;;;;;6.00;5.40;;;22.00;99.90;;;;;;4994919;28;20037;-85
2023/08/01 04:11:34;;;;;;;6.07;5.45;;;22.00;99.90;;;;;;4995721;28;20041;-85
2023/08/01 04:14:00;;;;;;;5.45;4.95;;;22.00;99.90;;;;;;4995674;28;20030;-85
2023/08/01 04:16:25;;;;;;;5.97;5.38;;;22.00;99.90;;;;;;5013079;28;20048;-85
2023/08/01 04:18:51;;;;;;;5.93;5.05;;;22.00;99.90;;;;;;4995071;28;20397;-85
2023/08/01 04:21:18;;;;;;;6.15;5.07;;;22.00;99.90;;;;;;5013094;28;20413;-85
2023/08/01 04:23:43;;;;;;;5.45;4.75;;;22.00;99.90;;;;;;4994468;28;20030;-85
2023/08/01 04:26:09;;;;;;;5.38;4.88;;;22.10;99.90;;;;;;4993245;28;20393;-85
2023/08/01 04:28:35;;;;;;;5.93;5.32;;;22.10;99.90;;;;;;5011766;28;20516;-85
2023/08/01 04:31:00;;;;;;;4.82;4.32;;;22.10;99.90;;;;;;5011854;28;20501;-85
2023/08/01 04:33:26;;;;;;;5.68;5.18;;;22.10;99.90;;;;;;5028160;28;20532;-85
2023/08/01 04:35:52;;;;;;;7.93;6.45;;;22.20;99.90;;;;;;5028885;28;20116;-85
2023/08/01 04:38:17;;;;;;;7.13;6.43;;;22.20;99.90;;;;;;5012177;28;20033;-84
2023/08/01 04:40:43;;;;;;;6.70;5.95;;;22.20;99.90;;;;;;5029339;28;20486;-85
2023/08/01 04:43:10;;;;;;;7.00;6.32;;;22.20;99.90;;;;;;5028997;28;20041;-85
2023/08/01 04:45:36;;;;;;;6.68;6.07;;;22.20;99.90;;;;;;5028269;28;20069;-85
2023/08/01 04:48:02;;;;;;;9.73;8.82;;;22.30;99.90;;;;;;5014446;28;20434;-85
2023/08/01 04:50:27;;;;;;;8.98;8.18;;;22.30;99.90;;;;;;5010784;28;20029;-85
2023/08/01 04:52:53;;;;;;;8.23;7.43;;;22.30;99.90;;;;;;4993045;28;20037;-85
2023/08/01 04:55:18;;;;;;;9.07;8.23;;;22.30;99.90;;;;;;5011038;28;20037;-85
2023/08/01 04:57:44;;;;;;;10.85;9.75;;;22.40;99.90;;;;;;5011068;28;20065;-86
2023/08/01 05:00:11;;;;;;;9.02;8.13;;;22.40;99.90;;;;;;4993341;28;20061;-85
2023/08/01 05:02:37;;;;;;;8.98;8.07;;;22.50;99.90;;;;;;5011207;28;20422;-86
2023/08/01 05:05:03;;;;;;;10.05;9.05;;;22.50;99.90;;;;;;4993781;28;20076;-86
2023/08/01 05:07:29;;;;;;;11.27;9.50;;;22.50;99.90;;;;;;4993584;28;20028;-87
2023/08/01 05:09:55;;;;;;;8.68;7.60;;;22.50;99.90;;;;;;5011758;28;20109;-87
2023/08/01 05:12:21;;;;;;;6.28;5.57;;;22.50;99.90;;;;;;5011084;28;20447;-87
2023/08/01 05:14:46;;;;;;;6.30;5.70;;;22.40;99.90;;;;;;4989159;28;20066;-87
2023/08/01 05:17:12;;;;;;;5.97;5.38;;;22.40;99.90;;;;;;4990288;28;20026;-87
2023/08/01 05:19:38;;;;;;;5.28;4.78;;;22.40;99.90;;;;;;4990523;28;20401;-87
2023/08/01 05:22:04;;;;;;;5.28;4.78;;;22.30;99.90;;;;;;4989866;28;20515;-87
2023/08/01 05:24:29;;;;;;;7.57;5.50;;;22.30;99.90;;;;;;4990515;28;20030;-87
2023/08/01 05:26:55;;;;;;;6.85;6.07;;;22.30;99.90;;;;;;4976215;28;20049;-87
2023/08/01 05:29:20;;;;;;;6.32;5.72;;;22.30;99.90;;;;;;4991472;28;20034;-85
2023/08/01 05:31:46;;;;;;;6.10;5.50;;;22.30;99.90;;;;;;5055641;23;20096;-80
2023/08/01 05:34:12;;;;;;;5.88;5.28;;;22.30;99.90;;;;;;4996482;28;20022;-81
2023/08/01 05:36:37;;;;;;;6.10;5.38;;;22.30;99.90;;;;;;4989151;28;20041;-81
2023/08/01 05:39:03;;;;;;;7.05;6.45;;;22.30;99.90;;;;;;4989346;28;20114;-81
2023/08/01 05:41:29;;;;;;;7.22;6.53;;;22.40;99.90;;;;;;4992276;28;20022;-81
2023/08/01 05:43:56;;;;;;;6.75;6.10;;;22.40;99.90;;;;;;5002187;28;20029;-82
2023/08/01 05:46:22;;;;;;;6.88;6.22;;;22.40;99.90;;;;;;4994438;28;20030;-81
2023/08/01 05:48:48;;;;;;;6.90;6.20;;;22.40;99.90;;;;;;4998578;28;20084;-80
2023/08/01 05:51:13;;;;;;;7.13;6.47;;;22.50;99.90;;;;;;5018847;28;20124;-82
2023/08/01 05:53:39;;;;;;;7.15;6.45;;;22.50;99.90;;;;;;5015386;28;20057;-79
2023/08/01 05:56:05;;;;;;;9.27;8.32;;;22.60;99.90;;;;;;5004575;28;20442;-78
2023/08/01 05:58:30;;;;;;;8.55;7.75;;;22.60;99.90;;;;;;4997915;28;20237;-79
2023/08/01 06:00:57;;;;;;;8.77;7.97;;;22.70;99.90;;;;;;5001715;28;20378;-78
2023/08/01 06:03:22;;;;;;;9.20;8.30;;;22.70;99.90;;;;;;5006261;28;20164;-79
2023/08/01 06:05:48;;;;;;;10.60;9.50;;;22.70;99.90;;;;;;4996755;28;20054;-77
2023/08/01 06:08:15;;;;;;;10.32;9.32;;;22.80;99.90;;;;;;5006948;28;20044;-78
2023/08/01 06:10:41;;;;;;;10.50;9.50;;;22.90;99.90;;;;;;5005224;28;20513;-77
2023/08/01 06:13:07;;;;;;;12.73;11.25;;;22.90;99.90;;;;;;5011642;28;20041;-77
2023/08/01 06:15:33;;;;;;;12.02;10.93;;;23.00;99.90;;;;;;5011729;28;20053;-79
2023/08/01 06:17:59;;;;;;;12.05;10.88;;;23.00;99.90;;;;;;5001348;28;20398;-80
2023/08/01 06:20:25;;;;;;;16.63;12.30;;;23.00;99.90;;;;;;5002807;28;20022;-78
2023/08/01 06:22:51;;;;;;;12.38;11.07;;;23.10;99.90;;;;;;4994349;28;20037;-78
2023/08/01 06:25:17;;;;;;;13.65;12.25;;;23.10;99.90;;;;;;5003709;28;20037;-77
2023/08/01 06:27:42;;;;;;;12.85;11.55;;;23.10;99.90;;;;;;5002926;28;20148;-78
2023/08/01 06:30:08;;;;;;;11.55;10.30;;;23.20;99.30;;;;;;4979148;28;20735;-77
2023/08/01 06:32:34;;;;;;;11.77;10.57;;;23.10;99.00;;;;;;4994025;28;20051;-79
2023/08/01 06:35:00;;;;;;;12.10;10.90;;;23.10;99.30;;;;;;4997007;28;20026;-77
2023/08/01 06:37:25;;;;;;;12.02;10.82;;;23.10;99.00;;;;;;4999597;28;20038;-79
2023/08/01 06:39:51;;;;;;;11.68;10.50;;;23.20;99.20;;;;;;5000915;28;20042;-80
2023/08/01 06:42:17;;;;;;;11.18;10.07;;;23.20;98.90;;;;;;5004692;28;20064;-79
2023/08/01 06:44:43;;;;;;;10.38;9.40;;;23.30;98.50;;;;;;5006565;28;20487;-78
2023/08/01 06:47:08;;;;;;;9.50;8.60;;;23.40;98.30;;;;;;5004674;28;20434;-79
2023/08/01 06:49:34;;;;;;;9.80;8.80;;;23.40;97.90;;;;;;4994575;28;20098;-79
2023/08/01 06:52:00;;;;;;;9.57;8.68;;;23.50;98.00;;;;;;4997372;28;20060;-80
2023/08/01 06:54:25;;;;;;;10.57;8.95;;;23.50;97.40;;;;;;4996948;28;20053;-80
2023/08/01 06:56:51;;;;;;;11.38;9.77;;;23.60;97.40;;;;;;4997595;28;20041;-79
2023/08/01 06:59:17;;;;;;;9.50;8.50;;;23.60;97.30;;;;;;5001085;28;20034;-79
2023/08/01 07:01:43;;;;;;;9.20;8.30;;;23.60;97.00;;;;;;5006877;28;20068;-78
2023/08/01 07:04:13;;;;;;;9.07;8.18;;;23.60;96.90;;;;;;5005095;28;20033;-78
2023/08/01 07:06:40;;;;;;;8.77;7.88;;;23.60;96.40;;;;;;5000054;28;20025;-78
2023/08/01 07:09:06;;;;;;;8.68;7.78;;;23.60;96.10;;;;;;4989530;28;20026;-77
2023/08/01 07:11:32;;;;;;;9.70;8.70;;;23.60;96.00;;;;;;4995253;28;20034;-77
2023/08/01 07:13:58;;;;;;;9.55;8.55;;;23.70;95.90;;;;;;4985327;28;20421;-78
2023/08/01 07:16:24;;;;;;;9.63;8.63;;;23.70;96.00;;;;;;4995559;28;20379;-77
2023/08/01 07:18:50;;;;;;;14.90;8.65;;;23.70;96.10;;;;;;4994617;28;20034;-77
2023/08/01 07:21:17;;;;;;;10.13;9.13;;;23.70;96.00;;;;;;4995822;28;20056;-78
2023/08/01 07:23:43;;;;;;;11.05;9.90;;;23.70;96.10;;;;;;4991939;28;20049;-78
2023/08/01 07:26:09;;;;;;;11.80;9.80;;;23.80;96.20;;;;;;4997877;28;20033;-78
2023/08/01 07:28:35;;;;;;;11.00;9.90;;;23.80;96.10;;;;;;5000815;28;20145;-77
2023/08/01 07:31:01;;;;;;;10.88;9.88;;;23.80;95.80;;;;;;5000281;28;20338;-77
2023/08/01 07:33:27;;;;;;;10.90;9.88;;;23.80;96.00;;;;;;5006308;28;20104;-78
2023/08/01 07:35:53;;;;;;;11.38;10.18;;;23.90;96.10;;;;;;4997362;28;20486;-77
2023/08/01 07:38:18;;;;;;;10.93;9.60;;;23.90;96.10;;;;;;5006987;28;20069;-78
2023/08/01 07:40:44;;;;;;;11.27;10.18;;;24.00;96.10;;;;;;4999339;28;20664;-77
2023/08/01 07:43:10;;;;;;;10.43;9.32;;;24.10;96.00;;;;;;5006624;28;20074;-77
2023/08/01 07:45:37;;;;;;;12.13;10.05;;;24.20;95.90;;;;;;4985423;28;20049;-81
2023/08/01 07:48:06;;;;;;;10.75;9.75;;;24.30;95.10;;;;;;4981742;28;20113;-80
2023/08/01 07:50:31;;;;;;;10.60;9.55;;;24.50;94.80;;;;;;5008441;28;20040;-77
2023/08/01 07:52:58;;;;;;;9.55;8.65;;;24.50;94.90;;;;;;4991678;28;20471;-78
2023/08/01 07:55:24;;;;;;;9.32;8.43;;;24.60;94.20;;;;;;4996211;28;20018;-78
2023/08/01 07:57:50;;;;;;;10.07;9.15;;;24.60;94.20;;;;;;4996558;28;20052;-78
2023/08/01 08:00:15;;;;;;;9.38;8.48;;;24.60;94.10;;;;;;4976445;28;20037;-78
2023/08/01 08:02:42;;;;;;;9.40;8.48;;;24.70;93.80;;;;;;4999448;28;20030;-78
2023/08/01 08:05:09;;;;;;;10.00;9.00;;;24.70;93.80;;;;;;4995622;28;20022;-78
2023/08/01 08:07:36;;;;;;;9.15;8.25;;;24.70;93.70;;;;;;4994688;28;20033;-82
2023/08/01 08:10:02;;;;;;;10.38;9.38;;;24.80;93.70;;;;;;4979224;28;20034;-80
2023/08/01 08:12:28;;;;;;;8.93;8.07;;;24.80;93.30;;;;;;4992696;28;20104;-80
2023/08/01 08:14:54;;;;;;;9.95;8.88;;;24.80;93.00;;;;;;4978768;28;20046;-80
2023/08/01 08:17:19;;;;;;;8.95;8.05;;;24.80;92.70;;;;;;4991929;28;20494;-82
2023/08/01 08:19:45;;;;;;;8.93;8.02;;;24.80;92.60;;;;;;4997591;28;20034;-82
2023/08/01 08:22:11;;;;;;;7.80;7.05;;;24.80;92.30;;;;;;4995365;28;20030;-82
2023/08/01 08:24:36;;;;;;;7.90;7.20;;;24.80;92.40;;;;;;5001096;28;20397;-81
2023/08/01 08:27:02;;;;;;;8.80;8.00;;;24.80;92.20;;;;;;4988403;28;20378;-80
2023/08/01 08:29:29;;;;;;;10.57;9.48;;;24.80;92.10;;;;;;5000936;28;20604;-82
2023/08/01 08:31:55;;;;;;;9.95;9.05;;;24.80;92.10;;;;;;4984386;28;20493;-82
2023/08/01 08:34:20;;;;;;;10.77;9.77;;;24.80;92.10;;;;;;4996792;28;20045;-82
2023/08/01 08:36:46;;;;;;;9.55;8.65;;;24.70;92.30;;;;;;4983466;28;20469;-82
2023/08/01 08:39:12;;;;;;;10.25;9.25;;;24.70;92.30;;;;;;4990907;28;20033;-80
2023/08/01 08:41:44;;;;;;;10.23;9.32;;;24.70;92.30;;;;;;4995612;28;20031;-79
2023/08/01 08:44:14;;;;;;;10.07;9.13;;;24.70;92.50;;;;;;4998228;28;20026;-78
2023/08/01 08:46:45;;;;;;;10.63;9.63;;;24.60;92.40;;;;;;4996942;28;20038;-78
2023/08/01 08:49:11;;;;;;;10.05;9.05;;;24.60;92.40;;;;;;5002058;28;20786;-78
2023/08/01 08:51:38;;;;;;;9.52;8.63;;;24.60;92.40;;;;;;4990172;28;20034;-79
2023/08/01 08:54:05;;;;;;;9.65;8.75;;;24.60;92.50;;;;;;4997635;28;20057;-78
2023/08/01 08:56:31;;;;;;;10.52;9.52;;;24.60;92.60;;;;;;4993209;28;20132;-78
2023/08/01 08:58:57;;;;;;;10.13;9.13;;;24.60;92.60;;;;;;4993658;28;20085;-80
2023/08/01 09:01:23;;;;;;;9.73;8.82;;;24.60;92.60;;;;;;4997555;28;20021;-80
2023/08/01 09:03:48;;;;;;;9.70;8.80;;;24.60;92.50;;;;;;4994202;28;20026;-83
2023/08/01 09:06:20;;;;;;;10.43;9.05;;;24.60;92.60;;;;;;5002735;28;20030;-82
2023/08/01 09:09:18;;;;;;;9.32;8.43;;;24.60;92.60;;;;;;5001818;28;20089;-82
2023/08/01 09:11:49;;;;;;;8.80;7.90;;;24.50;92.60;;;;;;4987729;28;20065;-81
2023/08/01 09:14:15;;;;;;;8.68;7.78;;;24.50;92.70;;;;;;5005158;28;20026;-83
2023/08/01 09:16:42;;;;;;;8.85;8.05;;;24.50;92.70;;;;;;4994516;28;20104;-81
2023/08/01 09:19:08;;;;;;;8.65;7.85;;;24.50;92.90;;;;;;5009317;28;20040;-82
2023/08/01 09:21:35;;;;;;;10.00;9.07;;;24.60;92.80;;;;;;5004643;28;20053;-79
2023/08/01 09:24:21;;;;;;;8.60;7.70;;;24.60;93.10;;;;;;4996594;28;20033;-82
2023/08/01 09:26:48;;;;;;;8.50;7.70;;;24.60;92.80;;;;;;5006772;28;20065;-82
2023/08/01 09:29:17;;;;;;;8.85;7.35;;;24.60;93.10;;;;;;5009441;28;20030;-82
2023/08/01 09:31:43;;;;;;;7.13;6.43;;;24.70;92.90;;;;;;5001806;28;20502;-82
2023/08/01 09:34:21;;;;;;;7.50;6.80;;;24.70;92.80;;;;;;5008643;28;20037;-83
2023/08/01 09:36:46;;;;;;;6.85;6.15;;;24.80;92.70;;;;;;4990470;28;20112;-82
2023/08/01 09:39:20;;;;;;;5.40;4.90;;;24.80;92.60;;;;;;4992391;28;20103;-84
2023/08/01 09:41:54;;;;;;;6.63;5.57;;;24.80;92.20;;;;;;5004236;28;20030;-83
2023/08/01 09:44:20;;;;;;;5.88;5.28;;;24.80;92.00;;;;;;5013413;28;20085;-82
2023/08/01 09:46:56;;;;;;;5.60;5.03;;;24.90;92.10;;;;;;5006109;28;20125;-82
2023/08/01 09:49:22;;;;;;;5.40;4.90;;;24.90;92.00;;;;;;4991739;28;20089;-84
2023/08/01 09:51:48;;;;;;;4.95;4.22;;;24.90;92.00;;;;;;5012933;28;20036;-83
2023/08/01 09:54:16;;;;;;;4.35;3.95;;;24.90;91.90;;;;;;5008449;28;20045;-84
2023/08/01 09:56:44;;;;;;;4.55;4.15;;;25.00;91.80;;;;;;4999187;28;20040;-82
2023/08/01 09:59:11;;;;;;;3.75;3.45;;;25.00;91.80;;;;;;5004299;28;20030;-83
2023/08/01 10:01:40;;;;;;;3.92;3.63;;;25.00;91.80;;;;;;5004919;28;20121;-82
2023/08/01 10:04:07;;;;;;;4.05;3.65;;;25.10;91.90;;;;;;4997566;28;20076;-81
2023/08/01 10:06:38;;;;;;;3.53;3.22;;;25.10;91.80;;;;;;5007589;28;20037;-81
2023/08/01 10:09:04;;;;;;;;;;;25.10;91.80;;;;;;4987379;28;20031;-82
2023/08/01 10:11:33;;;;;;;3.35;3.05;;;25.10;91.60;;;;;;5010299;28;19913;-84
2023/08/01 10:14:02;;;;;;;3.37;3.07;;;25.10;91.80;;;;;;5010077;28;20101;-83
2023/08/01 10:16:29;;;;;;;3.20;2.90;;;25.10;91.50;;;;;;4973717;28;20295;-79
2023/08/01 10:18:56;;;;;;;3.30;3.00;;;25.10;91.40;;;;;;4984827;28;20140;-79
2023/08/01 10:21:22;;;;;;;3.30;3.00;;;25.10;91.20;;;;;;4996577;28;20026;-79
2023/08/01 10:23:48;;;;;;;3.50;3.13;;;25.20;91.10;;;;;;4998439;28;20412;-79
2023/08/01 10:26:15;;;;;;;3.28;2.97;;;25.20;91.10;;;;;;4987186;28;20474;-79
2023/08/01 10:28:49;;;;;;;3.20;2.95;;;25.20;90.90;;;;;;4995667;28;20125;-79
2023/08/01 10:31:18;;;;;;;3.42;3.13;;;25.20;90.60;;;;;;4993140;28;20065;-83
2023/08/01 10:33:48;;;;;;;3.50;3.20;;;25.20;90.50;;;;;;4997141;28;20034;-83
2023/08/01 10:36:24;;;;;;;3.38;3.03;;;25.20;90.40;;;;;;5004292;28;20034;-82
2023/08/01 10:38:53;;;;;;;3.40;3.10;;;25.20;90.20;;;;;;4990582;28;20058;-82
2023/08/01 10:41:35;;;;;;;3.38;3.08;;;25.20;90.30;;;;;;5012593;28;20438;-82
2023/08/01 10:44:08;;;;;;;3.15;2.95;;;25.20;90.10;;;;;;4994597;28;20030;-83
2023/08/01 10:46:57;;;;;;;3.30;3.00;;;25.20;90.10;;;;;;4999050;28;20026;-82
2023/08/01 10:49:41;;;;;;;3.10;2.80;;;25.20;89.90;;;;;;5004083;28;20030;-81
2023/08/01 10:52:29;;;;;;;2.97;2.78;;;25.20;89.90;;;;;;5000040;28;20045;-82
2023/08/01 10:55:02;;;;;;;3.45;3.15;;;25.20;89.70;;;;;;4989623;28;20030;-82
2023/08/01 10:57:29;;;;;;;4.68;3.00;;;25.20;89.70;;;;;;5005657;28;20026;-83
2023/08/01 10:59:55;;;;;;;10.68;6.30;;;25.20;89.70;;;;;;4998034;28;20037;-82
2023/08/01 11:02:26;;;;;;;5.07;3.60;;;25.20;89.70;;;;;;5001646;28;20045;-83
2023/08/01 11:04:57;;;;;;;5.55;3.60;;;25.20;89.50;;;;;;5004389;28;20085;-83
2023/08/01 11:07:23;;;;;;;3.90;3.50;;;25.20;89.20;;;;;;4996107;28;20054;-82
2023/08/01 11:09:49;;;;;;;6.05;4.28;;;25.10;88.80;;;;;;5007736;28;20078;-81
2023/08/01 11:12:15;;;;;;;3.75;3.38;;;25.10;88.50;;;;;;5005624;28;20042;-82
2023/08/01 11:14:40;;;;;;;5.07;3.85;;;25.10;88.20;;;;;;5010376;28;20156;-81
2023/08/01 11:17:06;;;;;;;3.78;3.40;;;25.00;88.00;;;;;;4987822;28;20033;-81
2023/08/01 11:19:32;;;;;;;3.58;3.28;;;25.00;87.50;;;;;;4993309;28;20029;-82
2023/08/01 11:21:59;;;;;;;3.63;3.25;;;25.00;87.40;;;;;;5001515;28;20029;-81
2023/08/01 11:24:26;;;;;;;3.83;3.42;;;24.90;87.50;;;;;;5003938;28;20057;-82
2023/08/01 11:26:54;;;;;;;3.53;3.22;;;24.90;87.30;;;;;;4979293;28;20080;-81
2023/08/01 11:29:20;;;;;;;3.20;3.00;;;24.80;86.80;;;;;;5011832;28;20026;-82
2023/08/01 11:31:53;;;;;;;3.50;3.20;;;24.80;86.60;;;;;;5003438;28;20050;-82
2023/08/01 11:34:19;;;;;;;3.72;3.42;;;24.80;86.80;;;;;;5001210;28;20038;-81
2023/08/01 11:36:45;;;;;;;3.40;3.10;;;24.70;87.00;;;;;;4997671;28;20035;-82
2023/08/01 11:39:12;;;;;;;3.63;3.33;;;24.70;87.10;;;;;;4997800;28;20686;-82
2023/08/01 11:41:38;;;;;;;3.67;3.38;;;24.70;86.80;;;;;;5004793;28;20022;-83
2023/08/01 11:44:04;;;;;;;3.38;3.08;;;24.70;86.50;;;;;;5003372;28;20031;-78
2023/08/01 11:46:37;;;;;;;3.45;3.15;;;24.60;86.40;;;;;;4989046;28;20060;-78
2023/08/01 11:49:04;;;;;;;4.20;3.80;;;24.60;86.50;;;;;;4984824;28;20037;-79
2023/08/01 11:51:30;;;;;;;3.55;3.25;;;24.60;86.90;;;;;;4986389;28;20030;-78
2023/08/01 11:54:03;;;;;;;3.67;3.38;;;24.60;87.00;;;;;;4980121;28;20042;-78
2023/08/01 11:56:30;;;;;;;4.00;3.60;;;24.60;86.90;;;;;;4978030;28;20031;-80
2023/08/01 11:58:56;;;;;;;3.67;3.30;;;24.50;87.20;;;;;;4993197;28;20025;-78
2023/08/01 12:01:22;;;;;;;3.78;3.47;;;24.50;87.50;;;;;;4994028;28;20032;-78
2023/08/01 12:03:55;;;;;;;3.88;3.58;;;24.50;87.60;;;;;;4995845;28;20105;-79
2023/08/01 12:06:23;;;;;;;3.72;3.42;;;24.60;87.60;;;;;;4992766;28;20026;-80
2023/08/01 12:08:50;;;;;;;4.13;3.60;;;24.50;87.70;;;;;;4992237;28;20079;-78
2023/08/01 12:11:29;;;;;;;3.70;3.40;;;24.50;87.40;;;;;;4975105;28;20109;-78
2023/08/01 12:14:04;;;;;;;4.10;3.72;;;24.60;87.00;;;;;;4985384;28;20046;-78
2023/08/01 12:16:30;;;;;;;3.70;3.40;;;24.60;87.20;;;;;;4975161;28;20033;-79
2023/08/01 12:18:57;;;;;;;3.58;3.30;;;24.60;88.00;;;;;;4984910;28;20082;-78
2023/08/01 12:21:22;;;;;;;3.78;3.47;;;24.60;87.10;;;;;;4978303;28;20030;-78
2023/08/01 12:23:48;;;;;;;3.95;3.63;;;24.70;87.10;;;;;;4995285;28;20049;-78
2023/08/01 12:26:14;;;;;;;3.47;3.17;;;24.80;87.10;;;;;;4992714;28;20345;-78
2023/08/01 12:28:39;;;;;;;3.40;3.10;;;24.80;87.10;;;;;;4952053;28;20060;-80
2023/08/01 12:31:05;;;;;;;3.45;3.15;;;24.80;87.20;;;;;;4984314;28;20037;-82
2023/08/01 12:33:32;;;;;;;3.65;3.35;;;24.90;86.90;;;;;;4989569;28;20048;-81
2023/08/01 12:35:59;;;;;;;3.78;3.47;;;25.00;86.60;;;;;;4999483;28;20054;-82
2023/08/01 12:38:26;;;;;;;3.55;3.25;;;25.00;86.10;;;;;;5002345;28;20183;-83
2023/08/01 12:40:52;;;;;;;3.30;3.00;;;25.00;86.00;;;;;;4991371;28;20037;-83
2023/08/01 12:43:17;;;;;;;3.55;3.25;;;25.00;85.40;;;;;;4999942;28;20022;-82